createdAt,value
2022-10-23T00:02:26.865Z,8.63
2022-10-23T00:06:32.851Z,8.39
2022-10-23T00:11:52.140Z,8.22
2022-10-23T00:17:10.910Z,8.29
2022-10-23T00:22:29.729Z,8.18
2022-10-23T00:27:48.553Z,8.14
2022-10-23T00:33:08.104Z,8.52
2022-10-23T00:38:27.430Z,8.6
2022-10-23T00:43:47.201Z,8.37
2022-10-23T00:49:06.407Z,8.42
2022-10-23T00:54:25.921Z,8.37
2022-10-23T01:02:58.952Z,8.07
2022-10-23T01:05:04.241Z,7.97
2022-10-23T01:10:23.755Z,7.94
2022-10-23T01:15:42.669Z,7.81
2022-10-23T01:21:01.490Z,7.98
2022-10-23T01:26:20.573Z,7.74
2022-10-23T01:31:39.962Z,7.49
2022-10-23T01:36:59.030Z,7.43
2022-10-23T01:42:17.249Z,7.58
2022-10-23T01:47:36.535Z,7.6
2022-10-23T01:52:55.428Z,7.6
2022-10-23T01:58:14.348Z,7.65
2022-10-23T02:03:33.676Z,7.49
2022-10-23T02:08:52.433Z,7.5
2022-10-23T02:14:11.626Z,7.49
2022-10-23T02:19:30.434Z,7.6
2022-10-23T02:24:50.103Z,7.46
2022-10-23T02:30:09.723Z,7.46
2022-10-23T02:35:28.818Z,7.33
2022-10-23T02:40:47.687Z,7.22
2022-10-23T02:46:06.915Z,7.21
2022-10-23T02:51:25.744Z,7.07
2022-10-23T02:56:45.260Z,7.04
2022-10-23T03:02:04.693Z,7.29
2022-10-23T03:07:24.346Z,7.29
2022-10-23T03:12:42.881Z,7.21
2022-10-23T03:18:03.120Z,7.05
2022-10-23T03:23:22.876Z,6.92
2022-10-23T03:28:41.707Z,6.87
2022-10-23T03:34:03.067Z,6.83
2022-10-23T03:39:20.195Z,6.71
2022-10-23T03:44:39.491Z,6.6
2022-10-23T03:49:58.282Z,6.51
2022-10-23T03:55:17.809Z,6.46
2022-10-23T04:00:37.409Z,6.53
2022-10-23T04:05:56.361Z,6.51
2022-10-23T04:11:15.354Z,6.4
2022-10-23T04:16:34.492Z,6.26
2022-10-23T04:21:53.691Z,6.16
2022-10-23T04:27:13.126Z,6.16
2022-10-23T04:32:32.472Z,6.28
2022-10-23T04:37:51.272Z,6.47
2022-10-23T04:43:10.584Z,6.54
2022-10-23T04:48:29.769Z,6.43
2022-10-23T04:53:48.725Z,6.19
2022-10-23T04:59:07.786Z,6.03
2022-10-23T05:04:27.860Z,5.95
2022-10-23T05:09:47.240Z,5.87
2022-10-23T05:15:06.139Z,5.82
2022-10-23T05:20:25.146Z,5.77
2022-10-23T05:25:44.180Z,5.68
2022-10-23T05:31:03.925Z,5.65
2022-10-23T05:36:23.667Z,5.72
2022-10-23T05:41:43.142Z,5.77
2022-10-23T05:47:02.799Z,5.77
2022-10-23T05:52:22.399Z,5.75
2022-10-23T05:57:41.967Z,5.74
2022-10-23T06:03:01.456Z,5.72
2022-10-23T06:08:20.538Z,5.78
2022-10-23T06:13:40.335Z,5.87
2022-10-23T06:18:59.415Z,5.92
2022-10-23T06:24:19.003Z,5.98
2022-10-23T06:29:38.393Z,6.05
2022-10-23T06:34:57.560Z,6.12
2022-10-23T06:40:16.897Z,6.23
2022-10-23T06:45:36.294Z,6.3
2022-10-23T06:50:55.138Z,6.41
2022-10-23T06:57:29.328Z,6.56
2022-10-23T07:01:35.418Z,6.71
2022-10-23T07:06:54.709Z,6.77
2022-10-23T07:12:13.499Z,6.88
2022-10-23T07:17:32.782Z,6.98
2022-10-23T07:22:52.423Z,7.02
2022-10-23T07:28:11.552Z,7.15
2022-10-23T07:33:30.803Z,7.26
2022-10-23T07:38:49.972Z,7.46
2022-10-23T07:44:09.471Z,7.67
2022-10-23T07:49:28.949Z,7.89
2022-10-23T07:58:02.043Z,8.1
2022-10-23T08:05:27.519Z,8.79
2022-10-23T08:10:47.241Z,8.77
2022-10-23T08:16:06.824Z,8.83
2022-10-23T08:21:26.037Z,8.91
2022-10-23T08:29:59.125Z,8.96
2022-10-23T08:32:03.178Z,9.16
2022-10-23T08:39:01.764Z,9.42
2022-10-23T08:48:01.543Z,9.88
2022-10-23T08:53:20.511Z,10.65
2022-10-23T08:58:39.506Z,11.66
2022-10-23T09:03:58.514Z,12.38
2022-10-23T09:09:17.872Z,12.99
2022-10-23T09:14:36.887Z,13.78
2022-10-23T09:23:09.962Z,14.33
2022-10-23T09:27:26.485Z,14.85
2022-10-23T09:35:54.172Z,15.38
2022-10-23T09:44:27.275Z,15.79
2022-10-23T09:48:43.791Z,16.52
2022-10-23T09:51:51.642Z,16.7
2022-10-23T09:57:11.299Z,16.99
2022-10-23T10:02:30.263Z,17.26
2022-10-23T10:07:47.890Z,17.74
2022-10-23T10:13:06.628Z,17.84
2022-10-23T10:19:40.778Z,18.12
2022-10-23T10:23:57.542Z,18.25
2022-10-23T10:29:06.200Z,18.46
2022-10-23T10:34:25.252Z,18.5
2022-10-23T10:39:44.304Z,18.59
2022-10-23T10:48:29.417Z,18.77
2022-10-23T10:52:33.874Z,18.9
2022-10-23T10:55:41.222Z,19.03
2022-10-23T11:00:59.208Z,18.91
2022-10-23T11:06:18.372Z,19.31
2022-10-23T11:11:37.113Z,19.79
2022-10-23T11:16:55.862Z,20.2
2022-10-23T11:22:15.217Z,20.59
2022-10-23T11:27:33.905Z,20.57
2022-10-23T11:32:52.803Z,20.92
2022-10-23T11:38:21.369Z,21.12
2022-10-23T11:43:32.142Z,20.79
2022-10-23T11:48:50.467Z,20.41
2022-10-23T11:54:09.740Z,20.33
2022-10-23T11:59:30.055Z,21.02
2022-10-23T12:06:04.229Z,21.88
2022-10-23T12:10:09.901Z,22
2022-10-23T12:15:26.995Z,21.91
2022-10-23T12:20:46.484Z,21.63
2022-10-23T12:26:05.876Z,21.1
2022-10-23T12:31:23.579Z,20.78
2022-10-23T12:36:42.432Z,20.59
2022-10-23T12:42:01.953Z,20.79
2022-10-23T12:47:20.756Z,20.84
2022-10-23T12:52:40.378Z,20.72
2022-10-23T12:57:59.441Z,20.57
2022-10-23T13:03:18.962Z,20.33
2022-10-23T13:08:38.403Z,20.37
2022-10-23T13:13:58.032Z,20.63
2022-10-23T13:19:17.473Z,21.1
2022-10-23T13:24:36.849Z,22.02
2022-10-23T13:29:55.750Z,23.06
2022-10-23T13:35:21.658Z,23.2
2022-10-23T13:40:34.495Z,22.73
2022-10-23T13:45:54.041Z,22.08
2022-10-23T13:51:11.972Z,21.71
2022-10-23T13:56:30.619Z,21.81
2022-10-23T14:01:50.062Z,21.87
2022-10-23T14:07:09.918Z,22.09
2022-10-23T14:12:28.907Z,22.36
2022-10-23T14:12:53.870Z,22.55
2022-10-23T14:18:13.803Z,22.35
2022-10-23T14:23:32.622Z,22.29
2022-10-23T14:28:51.350Z,22.25
2022-10-23T14:34:19.884Z,22.22
2022-10-23T14:39:30.435Z,22.25
2022-10-23T14:44:50.391Z,22.01
2022-10-23T14:50:09.324Z,21.6
2022-10-23T14:55:27.415Z,21.12
2022-10-23T15:00:56.780Z,20.78
2022-10-23T15:06:05.905Z,20.54
2022-10-23T15:11:25.259Z,20.29
2022-10-23T15:16:44.715Z,20.17
2022-10-23T15:22:03.794Z,20.1
2022-10-23T15:27:23.332Z,19.9
2022-10-23T15:32:42.155Z,19.77
2022-10-23T15:38:01.622Z,19.56
2022-10-23T15:43:20.827Z,19.45
2022-10-23T15:48:40.500Z,19.29
2022-10-23T15:53:59.798Z,19.35
2022-10-23T15:59:19.601Z,19.35
2022-10-23T16:04:37.922Z,19.27
2022-10-23T16:09:57.481Z,19.18
2022-10-23T16:15:16.724Z,19.1
2022-10-23T16:20:36.150Z,19.06
2022-10-23T16:25:55.818Z,18.98
2022-10-23T16:31:17.775Z,18.87
2022-10-23T16:36:34.157Z,18.83
2022-10-23T16:41:53.174Z,18.7
2022-10-23T16:47:12.523Z,18.53
2022-10-23T16:52:31.765Z,18.21
2022-10-23T16:57:50.755Z,17.99
2022-10-23T17:03:10.297Z,17.89
2022-10-23T17:08:29.711Z,17.94
2022-10-23T17:13:49.753Z,17.87
2022-10-23T17:19:11.852Z,17.79
2022-10-23T17:24:27.652Z,17.77
2022-10-23T17:29:47.304Z,17.66
2022-10-23T17:35:06.549Z,17.62
2022-10-23T17:40:25.537Z,17.61
2022-10-23T17:45:45.922Z,17.61
2022-10-23T17:51:04.669Z,17.7
2022-10-23T17:56:23.365Z,17.78
2022-10-23T18:01:43.152Z,17.87
2022-10-23T18:07:02.624Z,17.85
2022-10-23T18:12:22.222Z,17.75
2022-10-23T18:17:41.126Z,17.54
2022-10-23T18:22:59.388Z,17.54
2022-10-23T18:28:19.183Z,17.64
2022-10-23T18:33:38.115Z,17.74
2022-10-23T18:38:57.392Z,17.85
2022-10-23T18:44:16.497Z,17.91
2022-10-23T18:49:35.742Z,17.87
2022-10-23T18:54:54.595Z,17.81
2022-10-23T19:00:13.684Z,17.67
2022-10-23T19:05:33.102Z,18.37
2022-10-23T19:10:51.954Z,18.86
2022-10-23T19:16:11.587Z,19
2022-10-23T19:21:31.798Z,19.03
2022-10-23T19:26:50.612Z,19
2022-10-23T19:33:24.835Z,18.24
2022-10-23T19:37:41.378Z,17.66
2022-10-23T19:42:48.603Z,17.43
2022-10-23T19:48:07.753Z,17.04
2022-10-23T19:53:24.976Z,16.7
2022-10-23T19:58:44.944Z,16.69
2022-10-23T20:05:19.084Z,16.62
2022-10-23T20:09:24.917Z,16.52
2022-10-23T20:14:41.685Z,16.52
2022-10-23T20:20:00.466Z,16.45
2022-10-23T20:25:20.177Z,16.51
2022-10-23T20:30:39.036Z,16.54
2022-10-23T20:35:59.071Z,16.58
2022-10-23T20:41:18.538Z,16.58
2022-10-23T20:46:36.831Z,16.59
2022-10-23T20:51:56.328Z,16.62
2022-10-23T20:57:17.877Z,16.61
2022-10-23T21:02:45.955Z,16.54
2022-10-23T21:08:01.419Z,16.51
2022-10-23T21:13:12.585Z,16.51
2022-10-23T21:18:45.777Z,16.45
2022-10-23T21:23:51.789Z,16.48
2022-10-23T21:29:18.824Z,16.44
2022-10-23T21:34:30.741Z,16.21
2022-10-23T21:39:48.850Z,16.03
2022-10-23T21:45:17.274Z,15.82
2022-10-23T21:50:28.479Z,15.48
2022-10-23T21:55:48.016Z,15.22
2022-10-23T22:01:06.796Z,15.01
2022-10-23T22:06:25.525Z,14.84
2022-10-23T22:11:44.448Z,14.73
2022-10-23T22:17:04.751Z,14.67
2022-10-23T22:22:23.383Z,14.71
2022-10-23T22:27:43.000Z,14.78
2022-10-23T22:34:24.932Z,15.01
2022-10-23T22:38:21.051Z,14.9
2022-10-23T22:43:40.338Z,15.31
2022-10-23T22:48:59.345Z,15.79
2022-10-23T22:54:18.439Z,15.9
2022-10-23T22:59:38.888Z,16.11
2022-10-23T23:06:13.026Z,16.07
2022-10-23T23:15:37.348Z,14.84
2022-10-23T23:20:55.333Z,14.41
2022-10-23T23:26:14.407Z,14.36
2022-10-23T23:31:33.495Z,14.18
2022-10-23T23:36:52.124Z,14.15
2022-10-23T23:42:11.699Z,14.12
2022-10-23T23:47:30.591Z,14.18
2022-10-23T23:52:50.542Z,14.61
2022-10-23T23:58:10.092Z,14.46
